Aérodrome :
LOGIN :

S'inscrire | Disclaimer

   EN    FR    IT 

 










Légende :    VFR   VFR Marginal   IFR   IFR Intensif   IFR Très Intensif
Visi : 
Plafond : 
>= 8 km
>= 3000ft
5 à 8 km
1000 à 3000 ft
1500m à 5 km
500 à 1000 ft
800 à 1500m
200 à 500 ft
< 800m
< 200 ft
Symboles :   Orages  Brouillard  Fortes neiges  Fortes précipitations  Vent > 20 kt
SIGMETs :   Divers  Orages  Givrage  Turbulence  Onde Orograph.  Cendres Volcan.






- Altitude de l'aérodrome : 124 ft
- Code IATA : RNS


LFRN - Rennes

DERNIER METAR :
  • 220900Z AUTO 30010KT 9999 FEW024 SCT039 BKN045 18/12 Q1017 TEMPO 4000 SHRA BKN020TCU

METARs EXPIRÉS :
  • 220830Z AUTO 29010KT 240V330 9999 SCT024 SCT031 BKN038 17/12 Q1017 TEMPO 4000 SHRA BKN020TCU
  • 220800Z AUTO 30010KT 9999 BKN019 BKN027 BKN054 17/12 Q1017 TEMPO 4000 SHRA BKN020TCU
  • 220730Z AUTO 27009KT 240V300 9999 SCT019 OVC054 15/12 Q1016 TEMPO 4000 SHRA BKN020TCU
  • 220700Z AUTO 26008KT CAVOK 15/13 Q1016 NOSIG
  • 220630Z AUTO 27005KT 240V310 9999 FEW016 OVC052 15/13 Q1016 NOSIG
  • 220600Z AUTO 27007KT CAVOK 15/13 Q1016 NOSIG
  • 220530Z AUTO 28005KT CAVOK 14/12 Q1015 NOSIG
  • 220500Z AUTO 26005KT CAVOK 14/13 Q1015 TEMPO 4000 -RA BKN008
  • 220430Z AUTO 27005KT 9999 FEW016 14/13 Q1015 TEMPO 4000 -RA BKN008 BECMG 21010KT

TAF TAF LFRN
Valide du 22 à 06h jusqu'au 23 à 06h UTC


220500Z 2206/2306 28008KT 9999 BKN020
PROB40
TEMPO 2209/2213 4000 SHRA BKN020TCU
BECMG 2210/2212 32010KT
BECMG 2216/2218 VRB05KT
ATIS : +33 2 99 67 72 50



MET'MAP, la Météo Aéronautique d'un coup d'oeil ! - Copyright ORBIFLY Décembre 2007 - Disclaimer

ORBIFLY MET'MAP TEAM :

Programmation & Développement : Alexandra Zaïnal
Sur une idée originale de : Baudouin d'Aumeries
Soutien technique & logistique : Manuel Goepfert
Assistance : Marc-Olivier Méhu




SOURCES & CREDITS :

   NOAA